sensor_id;sensor_type;location;lat;lon;timestamp;temperature;humidity
2603;DHT22;1311;47.966;7.958;2023-01-29T00:00:21;2.10;99.90
2603;DHT22;1311;47.966;7.958;2023-01-29T00:02:48;2.10;99.90
2603;DHT22;1311;47.966;7.958;2023-01-29T00:05:15;2.10;99.90
2603;DHT22;1311;47.966;7.958;2023-01-29T00:07:42;2.10;99.90
2603;DHT22;1311;47.966;7.958;2023-01-29T00:10:10;2.10;99.90
2603;DHT22;1311;47.966;7.958;2023-01-29T00:12:36;2.10;99.90
2603;DHT22;1311;47.966;7.958;2023-01-29T00:15:04;2.10;99.90
2603;DHT22;1311;47.966;7.958;2023-01-29T00:17:32;2.10;99.90
2603;DHT22;1311;47.966;7.958;2023-01-29T00:19:59;2.10;99.90
2603;DHT22;1311;47.966;7.958;2023-01-29T00:22:26;2.00;99.90
2603;DHT22;1311;47.966;7.958;2023-01-29T00:24:52;2.00;99.90
2603;DHT22;1311;47.966;7.958;2023-01-29T00:27:19;2.00;99.90
2603;DHT22;1311;47.966;7.958;2023-01-29T00:29:46;2.00;99.90
2603;DHT22;1311;47.966;7.958;2023-01-29T00:32:35;2.00;99.90
2603;DHT22;1311;47.966;7.958;2023-01-29T00:35:02;2.00;99.90
2603;DHT22;1311;47.966;7.958;2023-01-29T00:37:28;2.00;99.90
2603;DHT22;1311;47.966;7.958;2023-01-29T00:39:55;2.00;99.90
2603;DHT22;1311;47.966;7.958;2023-01-29T00:42:23;2.00;99.90
2603;DHT22;1311;47.966;7.958;2023-01-29T00:45:08;2.00;99.90
2603;DHT22;1311;47.966;7.958;2023-01-29T00:47:36;2.00;99.90
2603;DHT22;1311;47.966;7.958;2023-01-29T00:50:07;2.00;99.90
2603;DHT22;1311;47.966;7.958;2023-01-29T00:52:35;2.00;99.90
2603;DHT22;1311;47.966;7.958;2023-01-29T00:55:05;2.00;99.90
2603;DHT22;1311;47.966;7.958;2023-01-29T00:57:33;2.00;99.90
2603;DHT22;1311;47.966;7.958;2023-01-29T01:00:00;2.00;99.90
2603;DHT22;1311;47.966;7.958;2023-01-29T01:02:31;2.00;99.90
2603;DHT22;1311;47.966;7.958;2023-01-29T01:05:17;1.90;99.90
2603;DHT22;1311;47.966;7.958;2023-01-29T01:07:45;1.90;99.90
2603;DHT22;1311;47.966;7.958;2023-01-29T01:10:14;1.90;99.90
2603;DHT22;1311;47.966;7.958;2023-01-29T01:12:47;1.90;99.90
2603;DHT22;1311;47.966;7.958;2023-01-29T01:15:15;1.90;99.90
2603;DHT22;1311;47.966;7.958;2023-01-29T01:17:41;1.90;99.90
2603;DHT22;1311;47.966;7.958;2023-01-29T01:20:09;1.90;99.90
2603;DHT22;1311;47.966;7.958;2023-01-29T01:22:38;1.90;99.90
2603;DHT22;1311;47.966;7.958;2023-01-29T01:25:05;1.90;99.90
2603;DHT22;1311;47.966;7.958;2023-01-29T01:27:32;1.90;99.90
2603;DHT22;1311;47.966;7.958;2023-01-29T01:30:02;1.80;99.90
2603;DHT22;1311;47.966;7.958;2023-01-29T01:32:29;1.80;99.90
2603;DHT22;1311;47.966;7.958;2023-01-29T01:34:56;1.80;99.90
2603;DHT22;1311;47.966;7.958;2023-01-29T01:37:22;1.80;99.90
2603;DHT22;1311;47.966;7.958;2023-01-29T01:39:50;1.80;99.90
2603;DHT22;1311;47.966;7.958;2023-01-29T01:42:22;1.80;99.90
2603;DHT22;1311;47.966;7.958;2023-01-29T01:44:57;1.70;99.90
2603;DHT22;1311;47.966;7.958;2023-01-29T01:47:32;1.70;99.90
2603;DHT22;1311;47.966;7.958;2023-01-29T01:50:05;1.70;99.90
2603;DHT22;1311;47.966;7.958;2023-01-29T01:52:34;1.60;99.90
2603;DHT22;1311;47.966;7.958;2023-01-29T01:55:03;1.70;99.90
2603;DHT22;1311;47.966;7.958;2023-01-29T01:57:31;1.60;99.90
2603;DHT22;1311;47.966;7.958;2023-01-29T02:00:03;1.60;99.90
2603;DHT22;1311;47.966;7.958;2023-01-29T02:02:36;1.60;99.90
2603;DHT22;1311;47.966;7.958;2023-01-29T02:05:21;1.50;99.90
2603;DHT22;1311;47.966;7.958;2023-01-29T02:08:05;1.40;99.90
2603;DHT22;1311;47.966;7.958;2023-01-29T02:10:51;1.40;99.90
2603;DHT22;1311;47.966;7.958;2023-01-29T02:13:18;1.40;99.90
2603;DHT22;1311;47.966;7.958;2023-01-29T02:15:45;1.30;99.90
2603;DHT22;1311;47.966;7.958;2023-01-29T02:18:14;1.30;99.90
2603;DHT22;1311;47.966;7.958;2023-01-29T02:20:47;1.20;99.90
2603;DHT22;1311;47.966;7.958;2023-01-29T02:23:36;1.20;99.90
2603;DHT22;1311;47.966;7.958;2023-01-29T02:26:18;1.10;99.90
2603;DHT22;1311;47.966;7.958;2023-01-29T02:28:56;1.10;99.90
2603;DHT22;1311;47.966;7.958;2023-01-29T02:31:48;1.00;99.90
2603;DHT22;1311;47.966;7.958;2023-01-29T02:34:24;1.00;99.90
2603;DHT22;1311;47.966;7.958;2023-01-29T02:36:57;1.00;99.90
2603;DHT22;1311;47.966;7.958;2023-01-29T02:39:31;1.00;99.90
2603;DHT22;1311;47.966;7.958;2023-01-29T02:42:02;1.00;99.90
2603;DHT22;1311;47.966;7.958;2023-01-29T02:44:37;1.00;99.90
2603;DHT22;1311;47.966;7.958;2023-01-29T02:47:13;1.00;99.90
2603;DHT22;1311;47.966;7.958;2023-01-29T02:49:46;1.00;99.90
2603;DHT22;1311;47.966;7.958;2023-01-29T02:52:16;1.00;99.90
2603;DHT22;1311;47.966;7.958;2023-01-29T02:54:49;1.00;99.90
2603;DHT22;1311;47.966;7.958;2023-01-29T02:57:20;1.00;99.90
2603;DHT22;1311;47.966;7.958;2023-01-29T02:59:53;1.00;99.90
2603;DHT22;1311;47.966;7.958;2023-01-29T03:02:24;1.00;99.90
2603;DHT22;1311;47.966;7.958;2023-01-29T03:04:59;1.10;99.90
2603;DHT22;1311;47.966;7.958;2023-01-29T03:07:30;1.10;99.90
2603;DHT22;1311;47.966;7.958;2023-01-29T03:10:14;1.10;99.90
2603;DHT22;1311;47.966;7.958;2023-01-29T03:12:43;1.10;99.90
2603;DHT22;1311;47.966;7.958;2023-01-29T03:15:17;1.10;99.90
2603;DHT22;1311;47.966;7.958;2023-01-29T03:17:52;1.10;99.90
2603;DHT22;1311;47.966;7.958;2023-01-29T03:20:23;1.00;99.90
2603;DHT22;1311;47.966;7.958;2023-01-29T03:22:57;1.10;99.90
2603;DHT22;1311;47.966;7.958;2023-01-29T03:25:27;1.10;99.90
2603;DHT22;1311;47.966;7.958;2023-01-29T03:28:15;1.10;99.90
2603;DHT22;1311;47.966;7.958;2023-01-29T03:31:04;1.00;99.90
2603;DHT22;1311;47.966;7.958;2023-01-29T03:33:53;1.00;99.90
2603;DHT22;1311;47.966;7.958;2023-01-29T03:36:28;1.10;99.90
2603;DHT22;1311;47.966;7.958;2023-01-29T03:39:02;1.10;99.90
2603;DHT22;1311;47.966;7.958;2023-01-29T03:41:33;1.00;99.90
2603;DHT22;1311;47.966;7.958;2023-01-29T03:44:07;1.00;99.90
2603;DHT22;1311;47.966;7.958;2023-01-29T03:46:40;0.90;99.90
2603;DHT22;1311;47.966;7.958;2023-01-29T03:49:14;0.90;99.90
2603;DHT22;1311;47.966;7.958;2023-01-29T03:51:52;0.90;99.90
2603;DHT22;1311;47.966;7.958;2023-01-29T03:54:24;0.90;99.90
2603;DHT22;1311;47.966;7.958;2023-01-29T03:56:56;0.90;99.90
2603;DHT22;1311;47.966;7.958;2023-01-29T03:59:32;0.90;99.90
2603;DHT22;1311;47.966;7.958;2023-01-29T04:02:04;0.90;99.90
2603;DHT22;1311;47.966;7.958;2023-01-29T04:04:33;1.00;99.90
2603;DHT22;1311;47.966;7.958;2023-01-29T04:07:05;1.00;99.90
2603;DHT22;1311;47.966;7.958;2023-01-29T04:09:40;1.00;99.90
2603;DHT22;1311;47.966;7.958;2023-01-29T04:12:09;1.00;99.90
2603;DHT22;1311;47.966;7.958;2023-01-29T04:14:37;1.00;99.90
2603;DHT22;1311;47.966;7.958;2023-01-29T04:17:10;1.00;99.90
2603;DHT22;1311;47.966;7.958;2023-01-29T04:19:38;1.10;99.90
2603;DHT22;1311;47.966;7.958;2023-01-29T04:22:10;1.10;99.90
2603;DHT22;1311;47.966;7.958;2023-01-29T04:24:39;1.10;99.90
2603;DHT22;1311;47.966;7.958;2023-01-29T04:27:17;1.00;99.90
2603;DHT22;1311;47.966;7.958;2023-01-29T04:30:01;1.00;99.90
2603;DHT22;1311;47.966;7.958;2023-01-29T04:32:40;1.10;99.90
2603;DHT22;1311;47.966;7.958;2023-01-29T04:35:23;1.10;99.90
2603;DHT22;1311;47.966;7.958;2023-01-29T04:38:00;1.00;99.90
2603;DHT22;1311;47.966;7.958;2023-01-29T04:40:39;1.10;99.90
2603;DHT22;1311;47.966;7.958;2023-01-29T04:43:13;1.00;99.90
2603;DHT22;1311;47.966;7.958;2023-01-29T04:45:49;1.10;99.90
2603;DHT22;1311;47.966;7.958;2023-01-29T04:48:23;1.00;99.90
2603;DHT22;1311;47.966;7.958;2023-01-29T04:50:55;1.00;99.90
2603;DHT22;1311;47.966;7.958;2023-01-29T04:53:28;1.00;99.90
2603;DHT22;1311;47.966;7.958;2023-01-29T04:56:06;1.00;99.90
2603;DHT22;1311;47.966;7.958;2023-01-29T04:58:38;0.90;99.90
2603;DHT22;1311;47.966;7.958;2023-01-29T05:01:09;0.90;99.90
2603;DHT22;1311;47.966;7.958;2023-01-29T05:03:41;0.90;99.90
2603;DHT22;1311;47.966;7.958;2023-01-29T05:06:10;0.90;99.90
2603;DHT22;1311;47.966;7.958;2023-01-29T05:08:38;0.90;99.90
2603;DHT22;1311;47.966;7.958;2023-01-29T05:11:06;0.90;99.90
2603;DHT22;1311;47.966;7.958;2023-01-29T05:13:36;0.80;99.90
2603;DHT22;1311;47.966;7.958;2023-01-29T05:16:08;0.80;99.90
2603;DHT22;1311;47.966;7.958;2023-01-29T05:18:35;0.80;99.90
2603;DHT22;1311;47.966;7.958;2023-01-29T05:21:06;0.80;99.90
2603;DHT22;1311;47.966;7.958;2023-01-29T05:23:33;0.80;99.90
2603;DHT22;1311;47.966;7.958;2023-01-29T05:26:00;0.80;99.90
2603;DHT22;1311;47.966;7.958;2023-01-29T05:28:26;0.80;99.90
2603;DHT22;1311;47.966;7.958;2023-01-29T05:30:54;0.80;99.90
2603;DHT22;1311;47.966;7.958;2023-01-29T05:33:24;0.80;99.90
2603;DHT22;1311;47.966;7.958;2023-01-29T05:35:52;0.70;99.90
2603;DHT22;1311;47.966;7.958;2023-01-29T05:38:21;0.60;99.90
2603;DHT22;1311;47.966;7.958;2023-01-29T05:40:48;0.50;99.90
2603;DHT22;1311;47.966;7.958;2023-01-29T05:43:16;0.60;99.90
2603;DHT22;1311;47.966;7.958;2023-01-29T05:45:51;0.40;99.90
2603;DHT22;1311;47.966;7.958;2023-01-29T05:48:19;0.50;99.90
2603;DHT22;1311;47.966;7.958;2023-01-29T05:50:46;0.40;99.90
2603;DHT22;1311;47.966;7.958;2023-01-29T05:53:13;0.40;99.90
2603;DHT22;1311;47.966;7.958;2023-01-29T05:55:44;0.40;99.90
2603;DHT22;1311;47.966;7.958;2023-01-29T05:58:11;0.40;99.90
2603;DHT22;1311;47.966;7.958;2023-01-29T06:00:39;0.40;99.90
2603;DHT22;1311;47.966;7.958;2023-01-29T06:03:06;0.40;99.90
2603;DHT22;1311;47.966;7.958;2023-01-29T06:05:36;0.40;99.90
2603;DHT22;1311;47.966;7.958;2023-01-29T06:08:04;0.40;99.90
2603;DHT22;1311;47.966;7.958;2023-01-29T06:10:31;0.30;99.90
2603;DHT22;1311;47.966;7.958;2023-01-29T06:12:59;0.30;99.90
2603;DHT22;1311;47.966;7.958;2023-01-29T06:15:26;0.30;99.90
2603;DHT22;1311;47.966;7.958;2023-01-29T06:17:53;0.30;99.90
2603;DHT22;1311;47.966;7.958;2023-01-29T06:20:20;0.30;99.90
2603;DHT22;1311;47.966;7.958;2023-01-29T06:22:47;0.10;99.90
2603;DHT22;1311;47.966;7.958;2023-01-29T06:25:14;-0.10;99.90
2603;DHT22;1311;47.966;7.958;2023-01-29T06:27:40;-0.30;99.90
2603;DHT22;1311;47.966;7.958;2023-01-29T06:30:10;-0.40;99.90
2603;DHT22;1311;47.966;7.958;2023-01-29T06:32:37;-0.60;99.90
2603;DHT22;1311;47.966;7.958;2023-01-29T06:35:04;-0.80;99.90
2603;DHT22;1311;47.966;7.958;2023-01-29T06:37:31;-0.90;99.90
2603;DHT22;1311;47.966;7.958;2023-01-29T06:39:58;-1.10;99.90
2603;DHT22;1311;47.966;7.958;2023-01-29T06:42:25;-1.20;99.90
2603;DHT22;1311;47.966;7.958;2023-01-29T06:44:52;-1.30;99.90
2603;DHT22;1311;47.966;7.958;2023-01-29T06:47:20;-1.40;99.90
2603;DHT22;1311;47.966;7.958;2023-01-29T06:49:47;-1.40;99.90
2603;DHT22;1311;47.966;7.958;2023-01-29T06:52:14;-1.50;99.90
2603;DHT22;1311;47.966;7.958;2023-01-29T06:54:41;-1.60;99.90
2603;DHT22;1311;47.966;7.958;2023-01-29T06:57:08;-1.60;99.90
2603;DHT22;1311;47.966;7.958;2023-01-29T06:59:34;-1.70;99.90
2603;DHT22;1311;47.966;7.958;2023-01-29T07:02:02;-1.70;99.90
2603;DHT22;1311;47.966;7.958;2023-01-29T07:04:30;-1.80;99.90
2603;DHT22;1311;47.966;7.958;2023-01-29T07:06:58;-1.80;99.90
2603;DHT22;1311;47.966;7.958;2023-01-29T07:09:25;-1.80;99.90
2603;DHT22;1311;47.966;7.958;2023-01-29T07:11:51;-1.80;99.90
2603;DHT22;1311;47.966;7.958;2023-01-29T07:14:18;-1.90;99.90
2603;DHT22;1311;47.966;7.958;2023-01-29T07:16:45;-1.90;99.90
2603;DHT22;1311;47.966;7.958;2023-01-29T07:19:12;-1.90;99.90
2603;DHT22;1311;47.966;7.958;2023-01-29T07:21:40;-1.80;99.90
2603;DHT22;1311;47.966;7.958;2023-01-29T07:24:07;-1.80;99.90
2603;DHT22;1311;47.966;7.958;2023-01-29T07:26:34;-1.80;99.90
2603;DHT22;1311;47.966;7.958;2023-01-29T07:29:01;-1.80;99.90
2603;DHT22;1311;47.966;7.958;2023-01-29T07:31:27;-1.80;99.90
2603;DHT22;1311;47.966;7.958;2023-01-29T07:33:54;-1.80;99.90
2603;DHT22;1311;47.966;7.958;2023-01-29T07:36:21;-1.80;99.90
2603;DHT22;1311;47.966;7.958;2023-01-29T07:38:50;-1.70;99.90
2603;DHT22;1311;47.966;7.958;2023-01-29T07:41:17;-1.70;99.90
2603;DHT22;1311;47.966;7.958;2023-01-29T07:43:44;-1.60;99.90
2603;DHT22;1311;47.966;7.958;2023-01-29T07:46:12;-1.50;99.90
2603;DHT22;1311;47.966;7.958;2023-01-29T07:48:39;-1.40;99.90
2603;DHT22;1311;47.966;7.958;2023-01-29T07:51:06;-1.40;99.90
2603;DHT22;1311;47.966;7.958;2023-01-29T07:53:32;-1.30;99.90
2603;DHT22;1311;47.966;7.958;2023-01-29T07:56:01;-1.30;99.90
2603;DHT22;1311;47.966;7.958;2023-01-29T07:58:28;-1.10;99.90
2603;DHT22;1311;47.966;7.958;2023-01-29T08:00:55;-1.00;99.90
2603;DHT22;1311;47.966;7.958;2023-01-29T08:03:22;-0.90;99.90
2603;DHT22;1311;47.966;7.958;2023-01-29T08:05:49;-0.70;99.90
2603;DHT22;1311;47.966;7.958;2023-01-29T08:08:16;-0.60;99.90
2603;DHT22;1311;47.966;7.958;2023-01-29T08:10:43;-0.50;99.90
2603;DHT22;1311;47.966;7.958;2023-01-29T08:13:11;-0.30;99.90
2603;DHT22;1311;47.966;7.958;2023-01-29T08:15:41;0.00;99.90
2603;DHT22;1311;47.966;7.958;2023-01-29T08:18:08;0.20;99.90
2603;DHT22;1311;47.966;7.958;2023-01-29T08:20:35;0.40;99.90
2603;DHT22;1311;47.966;7.958;2023-01-29T08:23:03;0.50;99.90
2603;DHT22;1311;47.966;7.958;2023-01-29T08:25:31;0.70;99.90
2603;DHT22;1311;47.966;7.958;2023-01-29T08:28:01;0.90;99.90
2603;DHT22;1311;47.966;7.958;2023-01-29T08:30:32;1.00;99.90
2603;DHT22;1311;47.966;7.958;2023-01-29T08:33:05;1.10;99.90
2603;DHT22;1311;47.966;7.958;2023-01-29T08:35:32;1.20;99.90
2603;DHT22;1311;47.966;7.958;2023-01-29T08:38:00;1.30;99.90
2603;DHT22;1311;47.966;7.958;2023-01-29T08:40:30;1.30;99.90
2603;DHT22;1311;47.966;7.958;2023-01-29T08:42:57;1.40;99.90
2603;DHT22;1311;47.966;7.958;2023-01-29T08:45:24;1.50;99.90
2603;DHT22;1311;47.966;7.958;2023-01-29T08:47:52;1.50;99.90
2603;DHT22;1311;47.966;7.958;2023-01-29T08:50:19;1.40;99.90
2603;DHT22;1311;47.966;7.958;2023-01-29T08:52:46;1.40;99.90
2603;DHT22;1311;47.966;7.958;2023-01-29T08:55:12;1.40;99.90
2603;DHT22;1311;47.966;7.958;2023-01-29T08:57:39;1.40;99.90
2603;DHT22;1311;47.966;7.958;2023-01-29T09:00:08;1.40;99.90
2603;DHT22;1311;47.966;7.958;2023-01-29T09:02:37;1.50;99.90
2603;DHT22;1311;47.966;7.958;2023-01-29T09:05:06;1.50;99.90
2603;DHT22;1311;47.966;7.958;2023-01-29T09:07:33;1.60;99.90
2603;DHT22;1311;47.966;7.958;2023-01-29T09:09:59;1.60;99.90
2603;DHT22;1311;47.966;7.958;2023-01-29T09:12:26;1.60;99.90
2603;DHT22;1311;47.966;7.958;2023-01-29T09:14:53;1.60;99.90
2603;DHT22;1311;47.966;7.958;2023-01-29T09:17:20;1.60;99.90
2603;DHT22;1311;47.966;7.958;2023-01-29T09:19:47;1.70;99.90
2603;DHT22;1311;47.966;7.958;2023-01-29T09:22:15;1.60;99.90
2603;DHT22;1311;47.966;7.958;2023-01-29T09:24:42;1.60;99.90
2603;DHT22;1311;47.966;7.958;2023-01-29T09:27:09;1.50;99.90
2603;DHT22;1311;47.966;7.958;2023-01-29T09:29:35;1.50;99.90
2603;DHT22;1311;47.966;7.958;2023-01-29T09:32:04;1.40;99.90
2603;DHT22;1311;47.966;7.958;2023-01-29T09:34:31;1.50;99.90
2603;DHT22;1311;47.966;7.958;2023-01-29T09:36:57;1.70;99.90
2603;DHT22;1311;47.966;7.958;2023-01-29T09:39:25;1.70;99.90
2603;DHT22;1311;47.966;7.958;2023-01-29T09:41:57;1.90;99.90
2603;DHT22;1311;47.966;7.958;2023-01-29T09:44:32;2.20;99.90
2603;DHT22;1311;47.966;7.958;2023-01-29T09:47:09;2.40;99.90
2603;DHT22;1311;47.966;7.958;2023-01-29T09:49:40;2.60;99.90
2603;DHT22;1311;47.966;7.958;2023-01-29T09:52:11;2.80;99.90
2603;DHT22;1311;47.966;7.958;2023-01-29T09:54:49;2.90;99.90
2603;DHT22;1311;47.966;7.958;2023-01-29T09:57:21;2.70;99.90
2603;DHT22;1311;47.966;7.958;2023-01-29T09:59:50;2.80;99.90
2603;DHT22;1311;47.966;7.958;2023-01-29T10:02:31;3.00;99.90
2603;DHT22;1311;47.966;7.958;2023-01-29T10:05:22;3.00;99.90
2603;DHT22;1311;47.966;7.958;2023-01-29T10:08:30;2.70;99.90
2603;DHT22;1311;47.966;7.958;2023-01-29T10:11:05;2.50;99.90
2603;DHT22;1311;47.966;7.958;2023-01-29T10:13:42;2.60;99.90
2603;DHT22;1311;47.966;7.958;2023-01-29T10:16:31;3.00;99.90
2603;DHT22;1311;47.966;7.958;2023-01-29T10:19:11;2.80;99.90
2603;DHT22;1311;47.966;7.958;2023-01-29T10:22:00;2.80;99.90
2603;DHT22;1311;47.966;7.958;2023-01-29T10:24:35;2.80;99.90
2603;DHT22;1311;47.966;7.958;2023-01-29T10:27:11;2.80;99.90
2603;DHT22;1311;47.966;7.958;2023-01-29T10:29:41;2.80;99.90
2603;DHT22;1311;47.966;7.958;2023-01-29T10:32:13;2.70;99.90
2603;DHT22;1311;47.966;7.958;2023-01-29T10:34:46;2.80;99.90
2603;DHT22;1311;47.966;7.958;2023-01-29T10:37:16;2.60;99.90
2603;DHT22;1311;47.966;7.958;2023-01-29T10:39:44;2.70;99.90
2603;DHT22;1311;47.966;7.958;2023-01-29T10:42:18;2.90;99.90
2603;DHT22;1311;47.966;7.958;2023-01-29T10:44:57;3.10;99.90
2603;DHT22;1311;47.966;7.958;2023-01-29T10:50:27;3.70;99.90
2603;DHT22;1311;47.966;7.958;2023-01-29T10:53:19;4.30;99.90
2603;DHT22;1311;47.966;7.958;2023-01-29T10:55:56;4.60;99.90
2603;DHT22;1311;47.966;7.958;2023-01-29T10:58:32;4.70;99.90
2603;DHT22;1311;47.966;7.958;2023-01-29T11:01:00;4.70;99.90
2603;DHT22;1311;47.966;7.958;2023-01-29T11:03:30;5.20;99.90
2603;DHT22;1311;47.966;7.958;2023-01-29T11:06:07;5.40;99.90
2603;DHT22;1311;47.966;7.958;2023-01-29T11:08:39;5.40;99.90
2603;DHT22;1311;47.966;7.958;2023-01-29T11:11:12;5.40;99.90
2603;DHT22;1311;47.966;7.958;2023-01-29T11:13:43;5.60;99.90
2603;DHT22;1311;47.966;7.958;2023-01-29T11:16:11;5.20;99.90
2603;DHT22;1311;47.966;7.958;2023-01-29T11:18:50;4.30;99.90
2603;DHT22;1311;47.966;7.958;2023-01-29T11:21:17;4.30;99.90
2603;DHT22;1311;47.966;7.958;2023-01-29T11:23:44;4.30;99.90
2603;DHT22;1311;47.966;7.958;2023-01-29T11:26:12;4.50;99.90
2603;DHT22;1311;47.966;7.958;2023-01-29T11:28:44;4.70;99.90
2603;DHT22;1311;47.966;7.958;2023-01-29T11:31:22;4.30;99.90
2603;DHT22;1311;47.966;7.958;2023-01-29T11:33:52;4.70;99.90
2603;DHT22;1311;47.966;7.958;2023-01-29T11:36:23;5.30;99.90
2603;DHT22;1311;47.966;7.958;2023-01-29T11:39:18;4.90;99.90
2603;DHT22;1311;47.966;7.958;2023-01-29T11:41:52;5.10;99.90
2603;DHT22;1311;47.966;7.958;2023-01-29T11:44:31;4.90;99.90
2603;DHT22;1311;47.966;7.958;2023-01-29T11:47:10;4.80;99.90
2603;DHT22;1311;47.966;7.958;2023-01-29T11:49:38;5.00;99.90
2603;DHT22;1311;47.966;7.958;2023-01-29T11:52:08;5.50;99.90
2603;DHT22;1311;47.966;7.958;2023-01-29T11:54:38;5.40;99.90
2603;DHT22;1311;47.966;7.958;2023-01-29T11:57:28;5.50;99.90
2603;DHT22;1311;47.966;7.958;2023-01-29T11:59:59;5.50;99.90
2603;DHT22;1311;47.966;7.958;2023-01-29T12:02:30;5.70;99.90
2603;DHT22;1311;47.966;7.958;2023-01-29T12:05:03;5.40;99.90
2603;DHT22;1311;47.966;7.958;2023-01-29T12:07:33;5.30;99.90
2603;DHT22;1311;47.966;7.958;2023-01-29T12:10:00;5.10;99.90
2603;DHT22;1311;47.966;7.958;2023-01-29T12:12:35;5.10;99.90
2603;DHT22;1311;47.966;7.958;2023-01-29T12:15:21;5.10;99.90
2603;DHT22;1311;47.966;7.958;2023-01-29T12:17:56;5.20;99.90
2603;DHT22;1311;47.966;7.958;2023-01-29T12:20:28;5.10;99.90
2603;DHT22;1311;47.966;7.958;2023-01-29T12:23:02;5.10;99.90
2603;DHT22;1311;47.966;7.958;2023-01-29T12:25:41;5.20;99.90
2603;DHT22;1311;47.966;7.958;2023-01-29T12:28:20;5.00;99.90
2603;DHT22;1311;47.966;7.958;2023-01-29T12:30:58;5.00;99.90
2603;DHT22;1311;47.966;7.958;2023-01-29T12:33:31;5.10;99.90
2603;DHT22;1311;47.966;7.958;2023-01-29T12:36:08;5.00;99.90
2603;DHT22;1311;47.966;7.958;2023-01-29T12:38:37;5.20;99.90
2603;DHT22;1311;47.966;7.958;2023-01-29T12:41:09;5.20;99.90
2603;DHT22;1311;47.966;7.958;2023-01-29T12:43:43;5.00;99.90
2603;DHT22;1311;47.966;7.958;2023-01-29T12:46:17;4.90;99.90
2603;DHT22;1311;47.966;7.958;2023-01-29T12:48:47;4.80;99.90
2603;DHT22;1311;47.966;7.958;2023-01-29T12:51:17;4.90;99.90
2603;DHT22;1311;47.966;7.958;2023-01-29T12:53:49;4.80;99.90
2603;DHT22;1311;47.966;7.958;2023-01-29T12:56:25;4.80;99.90
2603;DHT22;1311;47.966;7.958;2023-01-29T12:58:54;4.80;99.90
2603;DHT22;1311;47.966;7.958;2023-01-29T13:01:30;4.90;99.90
2603;DHT22;1311;47.966;7.958;2023-01-29T13:04:02;4.70;99.90
2603;DHT22;1311;47.966;7.958;2023-01-29T13:07:00;4.60;99.90
2603;DHT22;1311;47.966;7.958;2023-01-29T13:09:30;4.20;99.90
2603;DHT22;1311;47.966;7.958;2023-01-29T13:12:01;4.10;99.90
2603;DHT22;1311;47.966;7.958;2023-01-29T13:14:38;4.40;99.90
2603;DHT22;1311;47.966;7.958;2023-01-29T13:17:09;4.50;99.90
2603;DHT22;1311;47.966;7.958;2023-01-29T13:19:41;4.60;99.90
2603;DHT22;1311;47.966;7.958;2023-01-29T13:22:35;4.60;99.90
2603;DHT22;1311;47.966;7.958;2023-01-29T13:25:04;4.70;99.90
2603;DHT22;1311;47.966;7.958;2023-01-29T13:27:36;4.60;99.90
2603;DHT22;1311;47.966;7.958;2023-01-29T13:30:04;4.70;99.90
2603;DHT22;1311;47.966;7.958;2023-01-29T13:32:35;4.70;99.90
2603;DHT22;1311;47.966;7.958;2023-01-29T13:35:03;4.50;99.90
2603;DHT22;1311;47.966;7.958;2023-01-29T13:37:34;4.30;99.90
2603;DHT22;1311;47.966;7.958;2023-01-29T13:40:04;4.50;99.90
2603;DHT22;1311;47.966;7.958;2023-01-29T13:42:39;4.50;99.90
2603;DHT22;1311;47.966;7.958;2023-01-29T13:45:16;4.50;99.90
2603;DHT22;1311;47.966;7.958;2023-01-29T13:47:47;4.70;99.90
2603;DHT22;1311;47.966;7.958;2023-01-29T13:50:18;4.50;99.90
2603;DHT22;1311;47.966;7.958;2023-01-29T13:52:52;4.60;99.90
2603;DHT22;1311;47.966;7.958;2023-01-29T13:55:24;4.60;99.90
2603;DHT22;1311;47.966;7.958;2023-01-29T13:57:57;4.50;99.90
2603;DHT22;1311;47.966;7.958;2023-01-29T14:00:54;4.60;99.90
2603;DHT22;1311;47.966;7.958;2023-01-29T14:03:54;4.70;99.90
2603;DHT22;1311;47.966;7.958;2023-01-29T14:06:40;4.50;99.90
2603;DHT22;1311;47.966;7.958;2023-01-29T14:09:30;4.70;99.90
2603;DHT22;1311;47.966;7.958;2023-01-29T14:11:58;4.30;99.90
2603;DHT22;1311;47.966;7.958;2023-01-29T14:14:50;4.40;99.90
2603;DHT22;1311;47.966;7.958;2023-01-29T14:17:26;4.40;99.90
2603;DHT22;1311;47.966;7.958;2023-01-29T14:20:00;4.30;99.90
2603;DHT22;1311;47.966;7.958;2023-01-29T14:22:30;4.10;99.90
2603;DHT22;1311;47.966;7.958;2023-01-29T14:25:00;4.10;99.90
2603;DHT22;1311;47.966;7.958;2023-01-29T14:27:30;4.20;99.90
2603;DHT22;1311;47.966;7.958;2023-01-29T14:30:00;4.00;99.90
2603;DHT22;1311;47.966;7.958;2023-01-29T14:32:29;4.10;99.90
2603;DHT22;1311;47.966;7.958;2023-01-29T14:34:59;4.10;99.90
2603;DHT22;1311;47.966;7.958;2023-01-29T14:37:32;4.00;99.90
2603;DHT22;1311;47.966;7.958;2023-01-29T14:40:14;3.80;99.90
2603;DHT22;1311;47.966;7.958;2023-01-29T14:42:54;3.80;99.90
2603;DHT22;1311;47.966;7.958;2023-01-29T14:45:24;3.70;99.90
2603;DHT22;1311;47.966;7.958;2023-01-29T14:48:02;3.50;99.90
2603;DHT22;1311;47.966;7.958;2023-01-29T14:50:56;3.40;99.90
2603;DHT22;1311;47.966;7.958;2023-01-29T14:53:30;3.40;99.90
2603;DHT22;1311;47.966;7.958;2023-01-29T14:56:02;3.30;99.90
2603;DHT22;1311;47.966;7.958;2023-01-29T14:58:37;3.20;99.90
2603;DHT22;1311;47.966;7.958;2023-01-29T15:01:06;3.10;99.90
2603;DHT22;1311;47.966;7.958;2023-01-29T15:03:42;3.00;99.90
2603;DHT22;1311;47.966;7.958;2023-01-29T15:06:17;3.00;99.90
2603;DHT22;1311;47.966;7.958;2023-01-29T15:08:54;3.00;99.90
2603;DHT22;1311;47.966;7.958;2023-01-29T15:11:29;2.80;99.90
2603;DHT22;1311;47.966;7.958;2023-01-29T15:14:20;2.80;99.90
2603;DHT22;1311;47.966;7.958;2023-01-29T15:17:15;2.80;99.90
2603;DHT22;1311;47.966;7.958;2023-01-29T15:19:45;2.70;99.90
2603;DHT22;1311;47.966;7.958;2023-01-29T15:22:15;2.60;99.90
2603;DHT22;1311;47.966;7.958;2023-01-29T15:24:43;2.60;99.90
2603;DHT22;1311;47.966;7.958;2023-01-29T15:27:13;2.60;99.90
2603;DHT22;1311;47.966;7.958;2023-01-29T15:29:43;2.60;99.90
2603;DHT22;1311;47.966;7.958;2023-01-29T15:32:15;2.60;99.90
2603;DHT22;1311;47.966;7.958;2023-01-29T15:34:45;2.70;99.90
2603;DHT22;1311;47.966;7.958;2023-01-29T15:37:27;2.70;99.90
2603;DHT22;1311;47.966;7.958;2023-01-29T15:39:55;2.70;99.90
2603;DHT22;1311;47.966;7.958;2023-01-29T15:42:22;2.70;99.90
2603;DHT22;1311;47.966;7.958;2023-01-29T15:44:50;2.60;99.90
2603;DHT22;1311;47.966;7.958;2023-01-29T15:47:20;2.60;99.90
2603;DHT22;1311;47.966;7.958;2023-01-29T15:49:48;2.50;99.90
2603;DHT22;1311;47.966;7.958;2023-01-29T15:52:21;2.60;99.90
2603;DHT22;1311;47.966;7.958;2023-01-29T15:54:51;2.50;99.90
2603;DHT22;1311;47.966;7.958;2023-01-29T15:57:22;2.50;99.90
2603;DHT22;1311;47.966;7.958;2023-01-29T15:59:51;2.40;99.90
2603;DHT22;1311;47.966;7.958;2023-01-29T16:02:28;2.40;99.90
2603;DHT22;1311;47.966;7.958;2023-01-29T16:04:58;2.40;99.90
2603;DHT22;1311;47.966;7.958;2023-01-29T16:07:26;2.30;99.90
2603;DHT22;1311;47.966;7.958;2023-01-29T16:09:54;2.30;99.90
2603;DHT22;1311;47.966;7.958;2023-01-29T16:12:21;2.20;99.90
2603;DHT22;1311;47.966;7.958;2023-01-29T16:14:49;2.20;99.90
2603;DHT22;1311;47.966;7.958;2023-01-29T16:17:22;2.20;99.90
2603;DHT22;1311;47.966;7.958;2023-01-29T16:20:27;2.20;99.90
2603;DHT22;1311;47.966;7.958;2023-01-29T16:22:56;2.20;99.90
2603;DHT22;1311;47.966;7.958;2023-01-29T16:25:24;2.20;99.90
2603;DHT22;1311;47.966;7.958;2023-01-29T16:27:52;2.30;99.90
2603;DHT22;1311;47.966;7.958;2023-01-29T16:30:24;2.20;99.90
2603;DHT22;1311;47.966;7.958;2023-01-29T16:32:52;2.20;99.90
2603;DHT22;1311;47.966;7.958;2023-01-29T16:35:19;2.30;99.90
2603;DHT22;1311;47.966;7.958;2023-01-29T16:37:47;2.20;99.90
2603;DHT22;1311;47.966;7.958;2023-01-29T16:40:23;2.30;99.90
2603;DHT22;1311;47.966;7.958;2023-01-29T16:43:05;2.30;99.90
2603;DHT22;1311;47.966;7.958;2023-01-29T16:46:01;2.30;99.90
2603;DHT22;1311;47.966;7.958;2023-01-29T16:48:31;2.20;99.90
2603;DHT22;1311;47.966;7.958;2023-01-29T16:51:10;2.30;99.90